CheckWX is a tool to help pilots better visualize weather data.  It is not intended as a substitute for an official pre-flight weather briefing.

04:43:31 UTC

LDZD METAR
Zemunik Airport
Zadar, Croatia
Current

14 mins ago

LDZD 180430Z 13005KT 8000 3000NW BR FEW012 03/03 Q1023 NOSIG
Observed
Feb-18 @ 04:30 UTC
Wind
  • 130° at 5 KTS
Visibility
8,000 meters
Flight Rules
MVFR
Conditions
Mist
Cloud Levels
  • Few at 1,200' AGL
Temperature
C / 37°F
Dewpoint
C / 37°F
Humidity
100%
Altimeter
30.21" Hg
Pressure
1022.92 hPa
Previous

44 mins ago

LDZD 180400Z 14006KT 8000 1200NW R13/1700N BR MIFG NSC 03/02 Q1023 NOSIG
Observed
Feb-18 @ 04:00 UTC
Wind
  • 140° at 6 KTS
Visibility
8,000 meters
Flight Rules
MVFR
Conditions
Shallow Fog, Mist
Cloud Levels
  • Clear skies
Temperature
C / 37°F
Dewpoint
C / 36°F
Humidity
93%
Altimeter
30.21" Hg
Pressure
1022.92 hPa
Previous

1 hour ago

LDZD 180330Z 13004KT 4000 BR NSC 03/02 Q1023 NOSIG
Observed
Feb-18 @ 03:30 UTC
Wind
  • 130° at 4 KTS
Visibility
4,000 meters
Flight Rules
IFR
Conditions
Mist
Cloud Levels
  • Clear skies
Temperature
C / 37°F
Dewpoint
C / 36°F
Humidity
93%
Altimeter
30.21" Hg
Pressure
1022.92 hPa